sensor_id;sensor_type;location;lat;lon;timestamp;pressure;altitude;pressure_sealevel;temperature;humidity
33265;BME280;31404;53.974;-1.086;2024-01-11T00:00:37;103600.15;;;6.08;87.80
33265;BME280;31404;53.974;-1.086;2024-01-11T00:05:37;103607.66;;;5.19;93.79
33265;BME280;31404;53.974;-1.086;2024-01-11T00:10:35;103606.75;;;4.27;96.32
33265;BME280;31404;53.974;-1.086;2024-01-11T00:15:35;103614.29;;;5.31;91.88
33265;BME280;31404;53.974;-1.086;2024-01-11T00:20:35;103615.87;;;6.65;85.11
33265;BME280;31404;53.974;-1.086;2024-01-11T00:25:35;103621.94;;;7.08;82.06
33265;BME280;31404;53.974;-1.086;2024-01-11T00:30:35;103621.56;;;6.76;84.72
33265;BME280;31404;53.974;-1.086;2024-01-11T00:35:35;103621.76;;;6.49;84.90
33265;BME280;31404;53.974;-1.086;2024-01-11T00:40:35;103630.51;;;5.44;89.51
33265;BME280;31404;53.974;-1.086;2024-01-11T00:45:35;103627.25;;;6.14;87.07
33265;BME280;31404;53.974;-1.086;2024-01-11T00:50:34;103633.99;;;6.20;84.36
33265;BME280;31404;53.974;-1.086;2024-01-11T00:55:35;103637.68;;;6.01;84.99
33265;BME280;31404;53.974;-1.086;2024-01-11T01:00:35;103638.69;;;4.37;90.72
33265;BME280;31404;53.974;-1.086;2024-01-11T01:05:35;103645.24;;;5.40;89.08
33265;BME280;31404;53.974;-1.086;2024-01-11T01:10:35;103650.55;;;5.61;85.47
33265;BME280;31404;53.974;-1.086;2024-01-11T01:15:35;103654.43;;;5.38;86.42
33265;BME280;31404;53.974;-1.086;2024-01-11T01:20:35;103657.66;;;5.61;86.18
33265;BME280;31404;53.974;-1.086;2024-01-11T01:25:35;103653.00;;;6.60;82.86
33265;BME280;31404;53.974;-1.086;2024-01-11T01:30:35;103663.80;;;5.75;85.17
33265;BME280;31404;53.974;-1.086;2024-01-11T01:35:35;103655.41;;;6.27;83.46
33265;BME280;31404;53.974;-1.086;2024-01-11T01:40:35;103650.87;;;6.80;80.87
33265;BME280;31404;53.974;-1.086;2024-01-11T01:45:35;103660.95;;;5.05;87.32
33265;BME280;31404;53.974;-1.086;2024-01-11T01:50:35;103662.63;;;7.26;80.34
33265;BME280;31404;53.974;-1.086;2024-01-11T01:55:35;103668.37;;;6.45;82.29
33265;BME280;31404;53.974;-1.086;2024-01-11T02:00:35;103670.40;;;6.67;80.05
33265;BME280;31404;53.974;-1.086;2024-01-11T02:05:34;103682.16;;;6.27;82.90
33265;BME280;31404;53.974;-1.086;2024-01-11T02:10:35;103683.56;;;7.65;77.75
33265;BME280;31404;53.974;-1.086;2024-01-11T02:15:36;103697.86;;;5.85;83.08
33265;BME280;31404;53.974;-1.086;2024-01-11T02:20:35;103698.98;;;5.52;86.50
33265;BME280;31404;53.974;-1.086;2024-01-11T02:25:35;103700.10;;;6.15;84.10
33265;BME280;31404;53.974;-1.086;2024-01-11T02:30:35;103701.72;;;6.80;81.07
33265;BME280;31404;53.974;-1.086;2024-01-11T02:35:35;103703.66;;;7.75;77.33
33265;BME280;31404;53.974;-1.086;2024-01-11T02:40:34;103709.13;;;7.94;76.43
33265;BME280;31404;53.974;-1.086;2024-01-11T02:50:35;103719.44;;;7.87;75.96
33265;BME280;31404;53.974;-1.086;2024-01-11T02:55:35;103717.70;;;7.03;78.33
33265;BME280;31404;53.974;-1.086;2024-01-11T03:00:34;103720.81;;;6.36;83.43
33265;BME280;31404;53.974;-1.086;2024-01-11T03:05:35;103728.21;;;4.23;93.74
33265;BME280;31404;53.974;-1.086;2024-01-11T03:10:37;103720.86;;;4.95;90.74
33265;BME280;31404;53.974;-1.086;2024-01-11T03:15:34;103722.10;;;4.18;92.75
33265;BME280;31404;53.974;-1.086;2024-01-11T03:20:35;103733.55;;;4.16;92.23
33265;BME280;31404;53.974;-1.086;2024-01-11T03:25:35;103732.21;;;4.49;91.57
33265;BME280;31404;53.974;-1.086;2024-01-11T03:30:35;103732.37;;;4.40;89.80
33265;BME280;31404;53.974;-1.086;2024-01-11T03:35:35;103730.55;;;4.89;86.72
33265;BME280;31404;53.974;-1.086;2024-01-11T03:40:35;103729.54;;;4.56;89.56
33265;BME280;31404;53.974;-1.086;2024-01-11T03:45:34;103726.67;;;6.57;82.86
33265;BME280;31404;53.974;-1.086;2024-01-11T03:50:34;103728.73;;;6.66;80.38
33265;BME280;31404;53.974;-1.086;2024-01-11T03:55:35;103726.73;;;6.59;80.11
33265;BME280;31404;53.974;-1.086;2024-01-11T04:00:35;103719.67;;;8.03;75.98
33265;BME280;31404;53.974;-1.086;2024-01-11T04:05:35;103720.80;;;8.11;75.62
33265;BME280;31404;53.974;-1.086;2024-01-11T04:10:35;103721.83;;;8.28;74.67
33265;BME280;31404;53.974;-1.086;2024-01-11T04:15:35;103725.39;;;7.72;76.14
33265;BME280;31404;53.974;-1.086;2024-01-11T04:20:34;103721.22;;;7.83;75.15
33265;BME280;31404;53.974;-1.086;2024-01-11T04:25:35;103722.69;;;6.79;80.06
33265;BME280;31404;53.974;-1.086;2024-01-11T04:30:35;103725.60;;;6.35;83.03
33265;BME280;31404;53.974;-1.086;2024-01-11T04:35:35;103722.78;;;8.12;76.13
33265;BME280;31404;53.974;-1.086;2024-01-11T04:40:34;103725.99;;;7.36;76.82
33265;BME280;31404;53.974;-1.086;2024-01-11T04:45:35;103726.46;;;8.44;75.04
33265;BME280;31404;53.974;-1.086;2024-01-11T04:50:34;103725.58;;;8.54;73.72
33265;BME280;31404;53.974;-1.086;2024-01-11T04:55:34;103722.94;;;8.95;73.17
33265;BME280;31404;53.974;-1.086;2024-01-11T05:00:34;103724.53;;;8.64;73.68
33265;BME280;31404;53.974;-1.086;2024-01-11T05:05:35;103729.91;;;7.98;76.27
33265;BME280;31404;53.974;-1.086;2024-01-11T05:10:36;103736.85;;;7.61;77.46
33265;BME280;31404;53.974;-1.086;2024-01-11T05:15:35;103742.82;;;6.52;82.45
33265;BME280;31404;53.974;-1.086;2024-01-11T05:20:35;103740.51;;;6.38;87.74
33265;BME280;31404;53.974;-1.086;2024-01-11T05:25:34;103739.81;;;6.84;83.45
33265;BME280;31404;53.974;-1.086;2024-01-11T05:30:35;103748.50;;;6.95;86.12
33265;BME280;31404;53.974;-1.086;2024-01-11T05:35:36;103749.69;;;7.84;80.68
33265;BME280;31404;53.974;-1.086;2024-01-11T05:40:35;103753.16;;;8.11;78.91
33265;BME280;31404;53.974;-1.086;2024-01-11T05:45:35;103751.18;;;8.49;77.39
33265;BME280;31404;53.974;-1.086;2024-01-11T05:50:35;103757.97;;;7.11;86.55
33265;BME280;31404;53.974;-1.086;2024-01-11T05:55:35;103763.82;;;6.80;89.56
33265;BME280;31404;53.974;-1.086;2024-01-11T06:00:35;103767.60;;;7.88;84.78
33265;BME280;31404;53.974;-1.086;2024-01-11T06:05:35;103771.16;;;8.36;80.95
33265;BME280;31404;53.974;-1.086;2024-01-11T06:10:36;103767.95;;;8.49;79.85
33265;BME280;31404;53.974;-1.086;2024-01-11T06:15:34;103773.25;;;8.26;81.58
33265;BME280;31404;53.974;-1.086;2024-01-11T06:20:34;103772.57;;;7.37;87.01
33265;BME280;31404;53.974;-1.086;2024-01-11T06:25:38;103768.84;;;7.72;87.78
33265;BME280;31404;53.974;-1.086;2024-01-11T06:30:35;103776.07;;;8.08;88.06
33265;BME280;31404;53.974;-1.086;2024-01-11T06:35:35;103793.49;;;6.32;95.18
33265;BME280;31404;53.974;-1.086;2024-01-11T06:40:35;103792.97;;;6.49;96.59
33265;BME280;31404;53.974;-1.086;2024-01-11T06:45:37;103797.82;;;6.48;97.75
33265;BME280;31404;53.974;-1.086;2024-01-11T06:50:35;103796.21;;;7.36;93.29
33265;BME280;31404;53.974;-1.086;2024-01-11T06:55:39;103806.61;;;7.63;91.51
33265;BME280;31404;53.974;-1.086;2024-01-11T07:00:35;103806.79;;;6.86;98.06
33265;BME280;31404;53.974;-1.086;2024-01-11T07:05:34;103809.07;;;7.88;92.54
33265;BME280;31404;53.974;-1.086;2024-01-11T07:10:35;103813.54;;;7.98;91.57
33265;BME280;31404;53.974;-1.086;2024-01-11T07:15:34;103822.24;;;7.82;92.29
33265;BME280;31404;53.974;-1.086;2024-01-11T07:20:35;103826.33;;;8.90;86.63
33265;BME280;31404;53.974;-1.086;2024-01-11T07:25:36;103841.87;;;8.58;87.94
33265;BME280;31404;53.974;-1.086;2024-01-11T07:30:34;103850.30;;;8.11;88.58
33265;BME280;31404;53.974;-1.086;2024-01-11T07:35:35;103846.03;;;8.38;89.62
33265;BME280;31404;53.974;-1.086;2024-01-11T07:40:34;103850.66;;;7.83;89.77
33265;BME280;31404;53.974;-1.086;2024-01-11T07:45:35;103860.24;;;7.29;95.04
33265;BME280;31404;53.974;-1.086;2024-01-11T07:50:35;103865.48;;;8.28;90.76
33265;BME280;31404;53.974;-1.086;2024-01-11T07:55:35;103877.35;;;7.53;92.44
33265;BME280;31404;53.974;-1.086;2024-01-11T08:00:35;103870.15;;;8.88;87.40
33265;BME280;31404;53.974;-1.086;2024-01-11T08:05:35;103873.38;;;8.03;90.40
33265;BME280;31404;53.974;-1.086;2024-01-11T08:10:36;103875.11;;;8.29;89.76
33265;BME280;31404;53.974;-1.086;2024-01-11T08:15:35;103886.29;;;6.18;98.43
33265;BME280;31404;53.974;-1.086;2024-01-11T08:20:35;103885.16;;;8.02;91.77
33265;BME280;31404;53.974;-1.086;2024-01-11T08:25:35;103893.71;;;8.21;89.51
33265;BME280;31404;53.974;-1.086;2024-01-11T08:30:35;103909.88;;;7.18;95.11
33265;BME280;31404;53.974;-1.086;2024-01-11T08:35:35;103909.05;;;8.00;89.66
33265;BME280;31404;53.974;-1.086;2024-01-11T08:40:35;103912.43;;;8.04;88.15
33265;BME280;31404;53.974;-1.086;2024-01-11T08:45:35;103926.97;;;6.95;92.27
33265;BME280;31404;53.974;-1.086;2024-01-11T08:50:36;103925.43;;;5.82;100.00
33265;BME280;31404;53.974;-1.086;2024-01-11T08:55:35;103928.88;;;5.37;100.00
33265;BME280;31404;53.974;-1.086;2024-01-11T09:00:35;103927.15;;;5.61;100.00
33265;BME280;31404;53.974;-1.086;2024-01-11T09:05:35;103917.52;;;7.98;90.33
33265;BME280;31404;53.974;-1.086;2024-01-11T09:10:34;103924.33;;;6.87;93.59
33265;BME280;31404;53.974;-1.086;2024-01-11T09:15:35;103924.31;;;8.20;87.10
33265;BME280;31404;53.974;-1.086;2024-01-11T09:20:36;103928.55;;;9.30;81.66
33265;BME280;31404;53.974;-1.086;2024-01-11T09:25:35;103936.91;;;8.83;81.17
33265;BME280;31404;53.974;-1.086;2024-01-11T09:30:34;103931.23;;;9.78;78.95
33265;BME280;31404;53.974;-1.086;2024-01-11T09:35:35;103939.95;;;8.83;83.77
33265;BME280;31404;53.974;-1.086;2024-01-11T09:40:35;103937.62;;;8.42;85.15
33265;BME280;31404;53.974;-1.086;2024-01-11T09:45:34;103943.06;;;7.84;87.83
33265;BME280;31404;53.974;-1.086;2024-01-11T09:50:37;103943.24;;;8.53;84.62
33265;BME280;31404;53.974;-1.086;2024-01-11T09:55:35;103953.08;;;8.62;85.15
33265;BME280;31404;53.974;-1.086;2024-01-11T10:00:35;103966.08;;;8.07;86.81
33265;BME280;31404;53.974;-1.086;2024-01-11T10:05:35;103975.85;;;7.38;90.02
33265;BME280;31404;53.974;-1.086;2024-01-11T10:10:36;103979.35;;;7.93;87.88
33265;BME280;31404;53.974;-1.086;2024-01-11T10:15:35;103985.56;;;8.24;87.70
33265;BME280;31404;53.974;-1.086;2024-01-11T10:20:35;104006.47;;;8.39;85.37
33265;BME280;31404;53.974;-1.086;2024-01-11T10:25:35;104013.73;;;7.18;92.98
33265;BME280;31404;53.974;-1.086;2024-01-11T10:30:35;104014.71;;;7.75;90.69
33265;BME280;31404;53.974;-1.086;2024-01-11T10:35:35;104013.98;;;7.37;91.81
33265;BME280;31404;53.974;-1.086;2024-01-11T10:40:35;104020.03;;;6.98;96.04
33265;BME280;31404;53.974;-1.086;2024-01-11T10:45:35;104017.59;;;6.55;96.53
33265;BME280;31404;53.974;-1.086;2024-01-11T10:50:37;104018.99;;;7.09;93.64
33265;BME280;31404;53.974;-1.086;2024-01-11T10:55:35;104016.81;;;7.06;91.91
33265;BME280;31404;53.974;-1.086;2024-01-11T11:00:35;104005.99;;;6.78;91.08
33265;BME280;31404;53.974;-1.086;2024-01-11T11:05:35;104004.85;;;8.00;87.06
33265;BME280;31404;53.974;-1.086;2024-01-11T11:10:35;104005.14;;;7.39;87.28
33265;BME280;31404;53.974;-1.086;2024-01-11T11:15:36;104013.79;;;5.35;95.84
33265;BME280;31404;53.974;-1.086;2024-01-11T11:20:35;104006.38;;;6.54;93.23
33265;BME280;31404;53.974;-1.086;2024-01-11T11:25:40;104005.89;;;7.09;90.20
33265;BME280;31404;53.974;-1.086;2024-01-11T11:30:37;104001.13;;;6.31;89.94
33265;BME280;31404;53.974;-1.086;2024-01-11T11:35:35;104002.84;;;7.61;85.19
33265;BME280;31404;53.974;-1.086;2024-01-11T11:40:37;103993.64;;;8.23;83.17
33265;BME280;31404;53.974;-1.086;2024-01-11T11:45:35;103995.66;;;7.16;87.37
33265;BME280;31404;53.974;-1.086;2024-01-11T11:50:37;103991.75;;;8.31;82.82
33265;BME280;31404;53.974;-1.086;2024-01-11T11:55:35;104004.87;;;8.31;80.94
33265;BME280;31404;53.974;-1.086;2024-01-11T12:00:36;104007.93;;;7.88;82.81
33265;BME280;31404;53.974;-1.086;2024-01-11T12:10:35;104012.06;;;6.54;92.33
33265;BME280;31404;53.974;-1.086;2024-01-11T12:15:36;104007.42;;;6.61;91.81
33265;BME280;31404;53.974;-1.086;2024-01-11T12:20:36;103998.02;;;7.14;89.92
33265;BME280;31404;53.974;-1.086;2024-01-11T12:25:35;103995.69;;;5.50;98.01
33265;BME280;31404;53.974;-1.086;2024-01-11T12:30:35;103994.43;;;6.22;93.83
33265;BME280;31404;53.974;-1.086;2024-01-11T12:35:36;103995.15;;;6.16;95.04
33265;BME280;31404;53.974;-1.086;2024-01-11T12:40:36;103992.19;;;6.06;95.23
33265;BME280;31404;53.974;-1.086;2024-01-11T12:45:35;103993.33;;;5.98;95.54
33265;BME280;31404;53.974;-1.086;2024-01-11T12:50:36;103991.12;;;6.84;90.90
33265;BME280;31404;53.974;-1.086;2024-01-11T12:55:35;103990.52;;;7.17;89.84
33265;BME280;31404;53.974;-1.086;2024-01-11T13:00:36;103988.44;;;6.61;90.24
33265;BME280;31404;53.974;-1.086;2024-01-11T13:05:36;103988.04;;;8.00;84.16
33265;BME280;31404;53.974;-1.086;2024-01-11T13:10:35;103991.00;;;7.59;84.99
33265;BME280;31404;53.974;-1.086;2024-01-11T13:15:36;103993.91;;;6.88;91.48
33265;BME280;31404;53.974;-1.086;2024-01-11T13:20:34;103995.14;;;7.38;88.85
33265;BME280;31404;53.974;-1.086;2024-01-11T13:25:35;103986.94;;;6.52;93.66
33265;BME280;31404;53.974;-1.086;2024-01-11T13:30:35;103988.58;;;6.09;96.17
33265;BME280;31404;53.974;-1.086;2024-01-11T13:40:36;104001.36;;;3.81;100.00
33265;BME280;31404;53.974;-1.086;2024-01-11T13:45:35;104001.08;;;3.80;100.00
33265;BME280;31404;53.974;-1.086;2024-01-11T13:50:35;104001.27;;;4.12;100.00
33265;BME280;31404;53.974;-1.086;2024-01-11T13:55:35;103991.71;;;4.85;95.98
33265;BME280;31404;53.974;-1.086;2024-01-11T14:00:35;103987.75;;;4.49;97.60
33265;BME280;31404;53.974;-1.086;2024-01-11T14:05:36;103985.45;;;4.07;100.00
33265;BME280;31404;53.974;-1.086;2024-01-11T14:10:34;103986.53;;;4.77;100.00
33265;BME280;31404;53.974;-1.086;2024-01-11T14:15:35;103987.32;;;5.32;97.57
33265;BME280;31404;53.974;-1.086;2024-01-11T14:20:35;103984.85;;;6.17;92.17
33265;BME280;31404;53.974;-1.086;2024-01-11T14:25:35;103988.60;;;7.20;87.02
33265;BME280;31404;53.974;-1.086;2024-01-11T14:30:34;103993.44;;;6.58;90.07
33265;BME280;31404;53.974;-1.086;2024-01-11T14:35:34;104004.64;;;5.72;95.28
33265;BME280;31404;53.974;-1.086;2024-01-11T14:40:35;104000.76;;;6.88;92.50
33265;BME280;31404;53.974;-1.086;2024-01-11T14:45:35;103998.02;;;6.59;92.50
33265;BME280;31404;53.974;-1.086;2024-01-11T14:50:35;104006.42;;;7.41;89.46
33265;BME280;31404;53.974;-1.086;2024-01-11T14:55:36;104005.61;;;7.32;90.37
33265;BME280;31404;53.974;-1.086;2024-01-11T15:00:35;104007.26;;;7.17;90.46
33265;BME280;31404;53.974;-1.086;2024-01-11T15:05:35;104004.23;;;7.19;91.81
33265;BME280;31404;53.974;-1.086;2024-01-11T15:10:36;104005.84;;;7.69;88.56
33265;BME280;31404;53.974;-1.086;2024-01-11T15:15:34;104006.09;;;7.41;88.05
33265;BME280;31404;53.974;-1.086;2024-01-11T15:20:35;104008.15;;;5.56;99.09
33265;BME280;31404;53.974;-1.086;2024-01-11T15:25:35;104011.78;;;4.00;100.00
33265;BME280;31404;53.974;-1.086;2024-01-11T15:30:35;104009.53;;;3.77;100.00
33265;BME280;31404;53.974;-1.086;2024-01-11T15:35:35;104008.26;;;3.17;100.00
33265;BME280;31404;53.974;-1.086;2024-01-11T15:40:35;104008.13;;;4.24;100.00
33265;BME280;31404;53.974;-1.086;2024-01-11T15:45:35;104016.12;;;3.43;100.00
33265;BME280;31404;53.974;-1.086;2024-01-11T15:50:35;104007.79;;;5.30;98.90
33265;BME280;31404;53.974;-1.086;2024-01-11T15:55:35;104014.27;;;5.38;96.24
33265;BME280;31404;53.974;-1.086;2024-01-11T16:00:36;104018.81;;;6.35;92.50
33265;BME280;31404;53.974;-1.086;2024-01-11T16:05:35;104015.83;;;6.63;90.70
33265;BME280;31404;53.974;-1.086;2024-01-11T16:10:35;104021.44;;;6.85;89.49
33265;BME280;31404;53.974;-1.086;2024-01-11T16:15:34;104028.50;;;6.68;89.79
33265;BME280;31404;53.974;-1.086;2024-01-11T16:20:35;104035.22;;;5.91;93.94
33265;BME280;31404;53.974;-1.086;2024-01-11T16:25:35;104041.44;;;5.26;94.66
33265;BME280;31404;53.974;-1.086;2024-01-11T16:30:29;104033.05;;;7.06;89.78
33265;BME280;31404;53.974;-1.086;2024-01-11T16:35:35;104037.54;;;6.14;91.32
33265;BME280;31404;53.974;-1.086;2024-01-11T16:40:35;104036.54;;;5.57;96.01
33265;BME280;31404;53.974;-1.086;2024-01-11T16:45:35;104044.48;;;4.37;100.00
33265;BME280;31404;53.974;-1.086;2024-01-11T16:50:35;104034.04;;;5.29;99.08
33265;BME280;31404;53.974;-1.086;2024-01-11T16:55:34;104039.69;;;3.71;100.00
33265;BME280;31404;53.974;-1.086;2024-01-11T17:00:36;104036.62;;;4.09;100.00
33265;BME280;31404;53.974;-1.086;2024-01-11T17:05:35;104029.26;;;5.39;100.00
33265;BME280;31404;53.974;-1.086;2024-01-11T17:10:35;104034.73;;;6.32;94.13
33265;BME280;31404;53.974;-1.086;2024-01-11T17:15:35;104037.16;;;6.03;93.98
33265;BME280;31404;53.974;-1.086;2024-01-11T17:20:35;104032.38;;;6.05;97.53
33265;BME280;31404;53.974;-1.086;2024-01-11T17:25:36;104037.22;;;5.00;100.00
33265;BME280;31404;53.974;-1.086;2024-01-11T17:30:35;104041.41;;;6.20;95.81
33265;BME280;31404;53.974;-1.086;2024-01-11T17:35:35;104040.23;;;7.06;92.98
33265;BME280;31404;53.974;-1.086;2024-01-11T17:40:35;104035.35;;;6.16;100.00
33265;BME280;31404;53.974;-1.086;2024-01-11T17:45:36;104022.84;;;6.64;98.93
33265;BME280;31404;53.974;-1.086;2024-01-11T17:50:34;104022.45;;;7.06;96.83
33265;BME280;31404;53.974;-1.086;2024-01-11T17:55:35;104030.99;;;7.88;92.55
33265;BME280;31404;53.974;-1.086;2024-01-11T18:00:35;104033.93;;;4.44;100.00
33265;BME280;31404;53.974;-1.086;2024-01-11T18:05:35;104034.37;;;7.05;99.36
33265;BME280;31404;53.974;-1.086;2024-01-11T18:10:36;104033.40;;;7.10;99.02
33265;BME280;31404;53.974;-1.086;2024-01-11T18:15:35;104031.27;;;6.41;99.67
33265;BME280;31404;53.974;-1.086;2024-01-11T18:20:35;104027.11;;;7.84;93.01
33265;BME280;31404;53.974;-1.086;2024-01-11T18:25:36;104019.98;;;7.33;92.85
33265;BME280;31404;53.974;-1.086;2024-01-11T18:30:35;104018.89;;;6.59;100.00
33265;BME280;31404;53.974;-1.086;2024-01-11T18:35:35;104017.53;;;7.28;93.85
33265;BME280;31404;53.974;-1.086;2024-01-11T18:40:35;104023.55;;;6.35;97.83
33265;BME280;31404;53.974;-1.086;2024-01-11T18:45:35;104023.83;;;7.17;94.17
33265;BME280;31404;53.974;-1.086;2024-01-11T18:50:35;104021.13;;;7.18;91.87
33265;BME280;31404;53.974;-1.086;2024-01-11T18:55:36;104014.65;;;7.55;91.77
33265;BME280;31404;53.974;-1.086;2024-01-11T19:00:35;104014.07;;;7.48;92.06
33265;BME280;31404;53.974;-1.086;2024-01-11T19:05:35;104012.51;;;7.43;92.45
33265;BME280;31404;53.974;-1.086;2024-01-11T19:10:35;104016.82;;;7.80;89.72
33265;BME280;31404;53.974;-1.086;2024-01-11T19:15:35;104017.63;;;6.32;96.63
33265;BME280;31404;53.974;-1.086;2024-01-11T19:20:35;104022.29;;;7.17;91.66
33265;BME280;31404;53.974;-1.086;2024-01-11T19:25:35;104017.67;;;6.66;93.12
33265;BME280;31404;53.974;-1.086;2024-01-11T19:30:35;104023.75;;;7.35;88.51
33265;BME280;31404;53.974;-1.086;2024-01-11T19:35:35;104026.50;;;8.19;85.72
33265;BME280;31404;53.974;-1.086;2024-01-11T19:40:35;104026.78;;;7.81;84.68
33265;BME280;31404;53.974;-1.086;2024-01-11T19:45:35;104022.97;;;8.28;81.49
33265;BME280;31404;53.974;-1.086;2024-01-11T19:50:35;104016.14;;;8.66;81.07
33265;BME280;31404;53.974;-1.086;2024-01-11T19:55:35;104028.08;;;5.79;94.56
33265;BME280;31404;53.974;-1.086;2024-01-11T20:00:36;104023.09;;;7.67;86.86
33265;BME280;31404;53.974;-1.086;2024-01-11T20:05:37;104025.67;;;7.00;90.24
33265;BME280;31404;53.974;-1.086;2024-01-11T20:10:35;104033.16;;;6.79;91.58
33265;BME280;31404;53.974;-1.086;2024-01-11T20:20:36;104016.58;;;6.76;91.45
33265;BME280;31404;53.974;-1.086;2024-01-11T20:25:35;104019.78;;;4.71;100.00
33265;BME280;31404;53.974;-1.086;2024-01-11T20:30:35;104020.74;;;5.36;100.00
33265;BME280;31404;53.974;-1.086;2024-01-11T20:35:34;104025.42;;;5.67;100.00
33265;BME280;31404;53.974;-1.086;2024-01-11T20:40:35;104024.99;;;5.99;96.36
33265;BME280;31404;53.974;-1.086;2024-01-11T20:50:35;104030.21;;;6.84;94.13
33265;BME280;31404;53.974;-1.086;2024-01-11T20:55:34;104035.13;;;6.69;92.92
33265;BME280;31404;53.974;-1.086;2024-01-11T21:00:34;104039.12;;;6.49;93.81
33265;BME280;31404;53.974;-1.086;2024-01-11T21:05:35;104046.49;;;7.29;90.29
33265;BME280;31404;53.974;-1.086;2024-01-11T21:10:35;104049.94;;;6.24;95.44
33265;BME280;31404;53.974;-1.086;2024-01-11T21:15:35;104048.52;;;7.07;89.35
33265;BME280;31404;53.974;-1.086;2024-01-11T21:20:36;104050.05;;;6.24;94.36
33265;BME280;31404;53.974;-1.086;2024-01-11T21:25:35;104053.27;;;6.81;93.27
33265;BME280;31404;53.974;-1.086;2024-01-11T21:30:35;104061.14;;;6.63;92.96
33265;BME280;31404;53.974;-1.086;2024-01-11T21:35:35;104058.06;;;6.32;95.16
33265;BME280;31404;53.974;-1.086;2024-01-11T21:40:36;104064.85;;;5.39;100.00
33265;BME280;31404;53.974;-1.086;2024-01-11T21:45:36;104062.17;;;6.17;100.00
33265;BME280;31404;53.974;-1.086;2024-01-11T21:50:35;104059.75;;;5.91;100.00
33265;BME280;31404;53.974;-1.086;2024-01-11T21:55:35;104066.20;;;5.72;99.85
33265;BME280;31404;53.974;-1.086;2024-01-11T22:00:34;104075.53;;;4.68;100.00
33265;BME280;31404;53.974;-1.086;2024-01-11T22:05:35;104065.42;;;6.29;100.00
33265;BME280;31404;53.974;-1.086;2024-01-11T22:10:35;104061.69;;;7.89;91.60
33265;BME280;31404;53.974;-1.086;2024-01-11T22:15:35;104061.13;;;7.30;93.98
33265;BME280;31404;53.974;-1.086;2024-01-11T22:20:36;104060.99;;;7.05;95.37
33265;BME280;31404;53.974;-1.086;2024-01-11T22:25:35;104055.58;;;7.64;91.07
33265;BME280;31404;53.974;-1.086;2024-01-11T22:30:35;104055.16;;;8.17;86.85
33265;BME280;31404;53.974;-1.086;2024-01-11T22:35:34;104050.75;;;8.33;87.21
33265;BME280;31404;53.974;-1.086;2024-01-11T22:40:35;104042.65;;;7.63;88.01
33265;BME280;31404;53.974;-1.086;2024-01-11T22:45:35;104036.90;;;8.67;82.35
33265;BME280;31404;53.974;-1.086;2024-01-11T22:50:35;104044.22;;;6.66;92.91
33265;BME280;31404;53.974;-1.086;2024-01-11T22:55:36;104041.13;;;7.56;88.39
33265;BME280;31404;53.974;-1.086;2024-01-11T23:00:35;104037.07;;;6.95;90.64
33265;BME280;31404;53.974;-1.086;2024-01-11T23:05:34;104044.72;;;7.94;86.04
33265;BME280;31404;53.974;-1.086;2024-01-11T23:10:35;104043.61;;;8.32;83.90
33265;BME280;31404;53.974;-1.086;2024-01-11T23:15:35;104047.10;;;7.73;83.74
33265;BME280;31404;53.974;-1.086;2024-01-11T23:20:35;104047.06;;;7.61;85.05
33265;BME280;31404;53.974;-1.086;2024-01-11T23:25:35;104053.03;;;7.46;87.27
33265;BME280;31404;53.974;-1.086;2024-01-11T23:30:35;104050.33;;;6.64;91.68
33265;BME280;31404;53.974;-1.086;2024-01-11T23:35:35;104051.68;;;7.08;89.35
33265;BME280;31404;53.974;-1.086;2024-01-11T23:40:35;104044.87;;;6.97;88.98
33265;BME280;31404;53.974;-1.086;2024-01-11T23:45:35;104047.97;;;7.16;88.96
33265;BME280;31404;53.974;-1.086;2024-01-11T23:50:35;104047.85;;;5.72;96.38
33265;BME280;31404;53.974;-1.086;2024-01-11T23:55:35;104036.33;;;6.67;93.11
